Churchton, Maryland
Current Conditions -  °F | °C
As of 12:54 AM on Sunday 21 Dec 2014 (Local Time) from KNAK Reporting Station
Haze Haze  
Wind Chill: 33°   Ceiling: 8500
Heat Index: 33°   Visibility: 6mi
Dew Point: 28°   Wind: 0mph
Humidity: 82%   Direction: NA
Pressure: 30.3"   Gusts: NA
Location:  38.8°N, 76.54°W
Report Text: KNAK 210554Z AUTO 00000KT 6SM HZ OVC085 01/M02 A3030 RMK AO2 SLP262 T00061022 10022 20000 58001
Loading
Personal Weather Stations






























Interactive Weather Map New forecast layout! Learn more

10-Day Weather Forecast

Advertisements
Track Severe Weather on mobile